Time;durP1;ratioP1;P1;durP2;ratioP2;P2;SDS_P1;SDS_P2;PMS_P1;PMS_P2;Temp;Humidity;BMP_temperature;BMP_pressure;BME280_temperature;BME280_humidity;BME280_pressure;Samples;Min_cycle;Max_cycle;Signal;HPM_P1;HPM_P2
2023/10/15 00:01:10;;;;;;;11.95;1.80;;;;;;;7.46;75.95;100779.06;7394987;19;20508;-67
2023/10/15 00:03:38;;;;;;;7.60;1.60;;;;;;;7.46;76.18;100786.03;7393689;19;20007;-67
2023/10/15 00:06:08;;;;;;;8.45;1.58;;;;;;;7.46;76.02;100786.03;7395420;19;20015;-67
2023/10/15 00:08:36;;;;;;;9.50;2.22;;;;;;;7.44;76.49;100780.84;7393074;19;20015;-67
2023/10/15 00:11:17;;;;;;;14.15;2.67;;;;;;;7.42;76.79;100777.34;7395220;19;20031;-67
2023/10/15 00:13:46;;;;;;;7.25;1.75;;;;;;;7.42;76.55;100777.34;7393537;19;20481;-68
2023/10/15 00:16:19;;;;;;;7.22;1.70;;;;;;;7.42;76.86;100773.88;7399946;19;20086;-68
2023/10/15 00:18:47;;;;;;;8.27;1.90;;;;;;;7.43;76.68;100780.81;7399386;19;20501;-68
2023/10/15 00:21:16;;;;;;;9.57;1.42;;;;;;;7.42;76.71;100781.69;7402773;19;20018;-68
2023/10/15 00:23:47;;;;;;;7.10;1.67;;;;;;;7.41;76.89;100780.00;7399342;19;20006;-68
2023/10/15 00:26:21;;;;;;;10.38;1.77;;;;;;;7.40;76.77;100792.16;7400121;19;20025;-68
2023/10/15 00:28:49;;;;;;;7.00;1.55;;;;;;;7.39;77.08;100790.41;7399820;19;20011;-67
2023/10/15 00:31:18;;;;;;;9.02;1.27;;;;;;;7.39;77.07;100784.34;7402368;19;20031;-66
2023/10/15 00:33:47;;;;;;;11.20;1.88;;;;;;;7.39;77.12;100789.56;7401964;19;20014;-67
2023/10/15 00:36:15;;;;;;;9.45;1.30;;;;;;;7.38;77.03;100788.72;7401889;19;20018;-67
2023/10/15 00:38:45;;;;;;;7.10;1.83;;;;;;;7.39;77.02;100794.78;7399601;19;20014;-67
2023/10/15 00:41:14;;;;;;;10.18;1.70;;;;;;;7.37;77.04;100792.19;7402063;19;20026;-67
2023/10/15 00:43:54;;;;;;;5.72;1.33;;;;;;;7.36;77.15;100795.69;7398764;19;20066;-67
2023/10/15 00:46:24;;;;;;;9.70;1.75;;;;;;;7.33;77.19;100786.13;7402463;19;20018;-67
2023/10/15 00:49:09;;;;;;;7.95;1.90;;;;;;;7.32;77.25;100792.22;7398936;19;20018;-66
2023/10/15 00:51:41;;;;;;;4.22;1.10;;;;;;;7.29;77.43;100787.03;7399444;19;20010;-67
2023/10/15 00:54:15;;;;;;;8.35;1.92;;;;;;;7.30;77.31;100791.38;7402214;19;20010;-67
2023/10/15 00:56:45;;;;;;;16.17;1.67;;;;;;;7.29;77.44;100793.97;7401848;19;20011;-67
2023/10/15 00:59:19;;;;;;;5.63;1.25;;;;;;;7.28;77.41;100797.47;7401483;19;20439;-67
2023/10/15 01:01:54;;;;;;;;;;;;;;;7.25;77.75;100798.34;7401922;19;20473;-67
2023/10/15 01:04:31;;;;;;;8.20;1.80;;;;;;;7.25;77.31;100808.78;7399124;19;19938;-67
2023/10/15 01:07:00;;;;;;;7.78;1.52;;;;;;;7.23;77.53;100810.56;7400913;19;20021;-67
2023/10/15 01:09:30;;;;;;;10.98;2.63;;;;;;;7.21;77.10;100807.09;7398284;19;20489;-68
2023/10/15 01:12:18;;;;;;;11.07;1.45;;;;;;;7.22;77.40;100798.38;7401124;19;20021;-67
2023/10/15 01:14:49;;;;;;;6.25;1.63;;;;;;;7.20;77.21;100801.88;7402157;19;20033;-67
2023/10/15 01:17:23;;;;;;;8.52;1.58;;;;;;;7.19;77.14;100798.41;7400227;19;20093;-67
2023/10/15 01:19:52;;;;;;;11.85;2.13;;;;;;;7.19;77.17;100798.41;7401289;19;20017;-68
2023/10/15 01:22:23;;;;;;;6.75;1.55;;;;;;;7.17;77.42;100803.63;7400746;19;20019;-68
2023/10/15 01:24:55;;;;;;;6.65;2.08;;;;;;;7.17;77.26;100800.16;7400274;19;20484;-68
2023/10/15 01:27:27;;;;;;;8.43;1.40;;;;;;;7.15;77.06;100800.19;7397602;19;20022;-68
2023/10/15 01:29:58;;;;;;;13.10;2.13;;;;;;;7.13;77.04;100795.84;7398221;19;20015;-68
2023/10/15 01:32:30;;;;;;;8.68;1.58;;;;;;;7.14;76.95;100794.94;7398162;19;20027;-67
2023/10/15 01:34:59;;;;;;;8.32;1.33;;;;;;;7.13;77.01;100793.25;7400071;19;20024;-68
2023/10/15 01:37:28;;;;;;;5.35;1.30;;;;;;;7.12;77.03;100791.50;7399079;19;20499;-68
2023/10/15 01:40:00;;;;;;;9.35;1.70;;;;;;;7.12;77.07;100791.50;7397781;19;20162;-68
2023/10/15 01:42:40;;;;;;;9.95;1.73;;;;;;;7.11;76.80;100793.22;7400178;19;20045;-68
2023/10/15 01:45:17;;;;;;;7.75;1.92;;;;;;;7.09;76.72;100786.28;7398099;19;20025;-68
2023/10/15 01:50:33;;;;;;;14.77;1.77;;;;;;;7.08;76.90;100792.41;7399563;19;20018;-68
2023/10/15 01:53:04;;;;;;;12.52;2.58;;;;;;;7.05;77.00;100793.28;7398810;19;20114;-67
2023/10/15 01:55:36;;;;;;;7.93;2.08;;;;;;;7.04;76.92;100794.16;7399372;19;20013;-68
2023/10/15 01:58:10;;;;;;;7.47;1.83;;;;;;;7.03;76.92;100796.75;7397455;19;20019;-68
2023/10/15 02:00:43;;;;;;;9.70;1.52;;;;;;;6.97;76.93;100792.47;7399632;19;20014;-68
2023/10/15 02:03:13;;;;;;;6.95;1.40;;;;;;;6.99;77.30;100788.13;7399151;19;20477;-68
2023/10/15 02:05:45;;;;;;;7.65;1.30;;;;;;;6.97;77.17;100790.72;7399300;19;20029;-68
2023/10/15 02:08:16;;;;;;;7.88;1.52;;;;;;;6.96;77.25;100795.94;7397312;19;20017;-68
2023/10/15 02:10:48;;;;;;;5.65;1.52;;;;;;;6.93;77.20;100789.00;7397109;19;20021;-67
2023/10/15 02:13:19;;;;;;;9.05;1.70;;;;;;;6.93;77.42;100786.38;7399487;19;20021;-68
2023/10/15 02:15:49;;;;;;;6.95;1.35;;;;;;;6.91;77.38;100787.28;7399394;19;20075;-68
2023/10/15 02:18:20;;;;;;;8.45;1.60;;;;;;;6.90;77.41;100786.44;7397323;19;20495;-68
2023/10/15 02:21:00;;;;;;;10.80;2.13;;;;;;;6.90;77.39;100783.81;7399205;19;20019;-66
2023/10/15 02:23:32;;;;;;;13.95;2.17;;;;;;;6.90;77.55;100783.81;7399152;19;20014;-68
2023/10/15 02:26:03;;;;;;;6.50;1.45;;;;;;;6.87;77.29;100783.81;7398239;19;20007;-67
2023/10/15 02:28:35;;;;;;;10.50;1.83;;;;;;;6.88;77.20;100790.78;7396252;19;20485;-66
2023/10/15 02:31:14;;;;;;;7.97;1.55;;;;;;;6.89;77.31;100787.28;7398162;19;20011;-67
2023/10/15 02:33:42;;;;;;;13.77;1.77;;;;;;;6.88;77.34;100782.09;7398688;19;20389;-67
2023/10/15 02:36:15;;;;;;;10.02;1.98;;;;;;;6.88;77.25;100797.75;7398266;19;20023;-67
2023/10/15 02:38:52;;;;;;;17.90;2.88;;;;;;;6.89;77.12;100802.94;7397442;19;20362;-67
2023/10/15 02:41:26;;;;;;;11.00;2.05;;;;;;;6.87;77.03;100796.84;7397694;19;20593;-67
2023/10/15 02:43:56;;;;;;;7.32;1.73;;;;;;;6.86;77.24;100795.13;7398514;19;20022;-67
2023/10/15 02:46:36;;;;;;;11.50;2.22;;;;;;;6.86;77.08;100797.72;7397960;19;20015;-67
2023/10/15 02:49:07;;;;;;;7.50;1.73;;;;;;;6.84;77.09;100804.72;7395795;19;20537;-67
2023/10/15 02:51:36;;;;;;;10.05;1.73;;;;;;;6.82;77.32;100801.22;7397396;19;20535;-67
2023/10/15 02:54:18;;;;;;;8.55;1.88;;;;;;;6.80;77.05;100793.44;7397827;19;20011;-67
2023/10/15 02:56:49;;;;;;;8.95;2.00;;;;;;;6.80;77.10;100796.03;7397855;19;20018;-66
2023/10/15 02:59:17;;;;;;;9.93;1.45;;;;;;;6.80;77.35;100800.41;7394890;19;20010;-67
2023/10/15 03:01:46;;;;;;;10.85;1.70;;;;;;;6.77;77.20;100797.78;7397462;19;20021;-67
2023/10/15 03:04:18;;;;;;;8.93;1.90;;;;;;;6.76;77.49;100809.97;7397362;19;20026;-68
2023/10/15 03:06:48;;;;;;;13.05;1.92;;;;;;;6.77;77.53;100823.88;7397309;19;20010;-68
2023/10/15 03:09:18;;;;;;;15.48;1.90;;;;;;;6.73;77.36;100809.97;7396294;19;20018;-67
2023/10/15 03:11:51;;;;;;;16.55;2.45;;;;;;;6.73;77.58;100815.19;7395606;19;20010;-67
2023/10/15 03:14:21;;;;;;;11.57;1.97;;;;;;;6.72;77.59;100816.06;7397573;19;20014;-68
2023/10/15 03:16:50;;;;;;;9.02;2.05;;;;;;;6.69;77.62;100814.31;7396503;19;20035;-67
2023/10/15 03:19:23;;;;;;;7.95;1.63;;;;;;;6.66;77.48;100811.75;7396920;19;20086;-68
2023/10/15 03:21:57;;;;;;;7.93;1.70;;;;;;;6.64;77.65;100821.31;7397251;19;20019;-67
2023/10/15 03:24:27;;;;;;;17.50;2.20;;;;;;;6.62;77.74;100823.06;7397216;19;20010;-67
2023/10/15 03:26:58;;;;;;;12.50;2.13;;;;;;;6.60;77.77;100816.13;7396517;19;20011;-67
2023/10/15 03:29:26;;;;;;;20.15;2.42;;;;;;;6.54;77.74;100803.13;7396369;19;20018;-67
2023/10/15 03:32:04;;;;;;;11.27;2.47;;;;;;;6.54;77.78;100814.41;7396032;19;20033;-67
2023/10/15 03:34:35;;;;;;;10.23;1.58;;;;;;;6.54;77.98;100823.97;7394461;19;20496;-66
2023/10/15 03:37:05;;;;;;;13.48;3.10;;;;;;;6.49;77.97;100821.38;7394956;19;20014;-67
2023/10/15 03:42:26;;;;;;;13.18;2.05;;;;;;;6.44;77.73;100818.78;7394510;19;20020;-67
2023/10/15 03:44:59;;;;;;;12.68;1.95;;;;;;;6.42;78.18;100820.53;7395722;19;20006;-67
2023/10/15 03:47:28;;;;;;;9.00;1.70;;;;;;;6.38;77.97;100815.31;7394987;19;20564;-67
2023/10/15 03:50:06;;;;;;;9.15;1.58;;;;;;;6.36;78.31;100813.59;7393924;19;20074;-67
2023/10/15 03:52:34;;;;;;;10.25;2.85;;;;;;;6.33;78.23;100821.44;7396173;19;20074;-67
2023/10/15 03:55:04;;;;;;;9.20;1.60;;;;;;;6.31;78.41;100815.34;7395753;19;20022;-67
2023/10/15 03:57:37;;;;;;;11.43;2.35;;;;;;;6.29;78.47;100813.63;7394878;19;20015;-67
2023/10/15 04:00:15;;;;;;;10.25;1.65;;;;;;;6.26;78.50;100814.50;7396931;19;20010;-67
2023/10/15 04:03:00;;;;;;;9.15;2.42;;;;;;;6.23;78.69;100814.53;7396037;19;20011;-67
2023/10/15 04:05:33;;;;;;;15.45;1.98;;;;;;;6.19;78.78;100816.25;7395914;19;20021;-67
2023/10/15 04:08:01;;;;;;;8.77;1.60;;;;;;;6.16;78.64;100818.84;7394021;19;20010;-67
2023/10/15 04:10:43;;;;;;;11.43;1.92;;;;;;;6.14;78.70;100817.13;7393314;19;20014;-67
2023/10/15 04:13:14;;;;;;;9.60;1.77;;;;;;;6.12;78.59;100821.50;7395032;19;20162;-67
2023/10/15 04:15:43;;;;;;;14.27;1.60;;;;;;;6.09;78.65;100822.38;7395666;19;20014;-67
2023/10/15 04:18:11;;;;;;;11.50;2.08;;;;;;;6.07;78.87;100818.88;7394191;19;20070;-67
2023/10/15 04:20:42;;;;;;;12.48;2.90;;;;;;;6.04;78.87;100818.91;7394744;19;20077;-68
2023/10/15 04:23:12;;;;;;;13.88;2.17;;;;;;;6.01;78.92;100822.34;7395469;19;20015;-67
2023/10/15 04:25:40;;;;;;;10.18;2.25;;;;;;;5.99;78.96;100816.28;7394952;19;20033;-67
2023/10/15 04:28:13;;;;;;;11.32;1.67;;;;;;;5.97;79.07;100818.00;7393244;19;20489;-67
2023/10/15 04:30:46;;;;;;;11.13;1.85;;;;;;;5.94;79.25;100818.00;7393821;19;20014;-67
2023/10/15 04:33:14;;;;;;;8.73;1.88;;;;;;;5.93;79.36;100820.63;7395150;19;20013;-67
2023/10/15 04:35:43;;;;;;;10.85;2.58;;;;;;;5.89;79.43;100814.56;7394684;19;20078;-68
2023/10/15 04:38:18;;;;;;;9.02;1.88;;;;;;;5.87;79.30;100813.66;7393372;19;20021;-67
2023/10/15 04:41:00;;;;;;;5.88;2.35;;;;;;;5.82;79.61;100813.66;7394964;19;20358;-67
2023/10/15 04:43:29;;;;;;;13.32;2.17;;;;;;;5.77;79.59;100812.81;7394223;19;20003;-67
2023/10/15 04:46:02;;;;;;;9.85;2.33;;;;;;;5.73;79.87;100807.63;7392098;19;20017;-67
2023/10/15 04:48:32;;;;;;;12.95;2.45;;;;;;;5.68;80.01;100813.69;7393036;19;20022;-67
2023/10/15 04:51:11;;;;;;;11.48;1.80;;;;;;;5.65;80.01;100807.59;7392721;19;20029;-67
2023/10/15 04:53:42;;;;;;;12.50;2.38;;;;;;;5.61;80.10;100809.38;7392661;19;20027;-67
2023/10/15 04:56:11;;;;;;;10.80;1.88;;;;;;;5.58;80.37;100803.28;7392544;19;20010;-67
2023/10/15 04:58:39;;;;;;;11.23;1.92;;;;;;;5.54;80.31;100802.41;7392402;19;20027;-67
2023/10/15 05:01:11;;;;;;;8.43;1.75;;;;;;;5.50;80.49;100795.50;7395643;19;20078;-67
2023/10/15 05:03:39;;;;;;;8.38;3.08;;;;;;;5.47;80.53;100803.28;7401158;19;20541;-67
2023/10/15 05:06:10;;;;;;;12.27;2.25;;;;;;;5.46;80.63;100806.75;7401352;19;20018;-67
2023/10/15 05:08:40;;;;;;;10.23;1.60;;;;;;;5.41;80.87;100801.56;7399043;19;20015;-67
2023/10/15 05:11:10;;;;;;;9.23;2.17;;;;;;;5.39;81.02;100801.53;7398689;19;20010;-67
2023/10/15 05:13:42;;;;;;;12.38;2.03;;;;;;;5.36;81.23;100804.13;7401346;19;20427;-67
2023/10/15 05:16:14;;;;;;;14.50;2.75;;;;;;;5.34;81.32;100800.66;7401361;19;20015;-67
2023/10/15 05:18:43;;;;;;;9.77;2.45;;;;;;;5.33;81.33;100803.28;7398721;19;20026;-68
2023/10/15 05:21:13;;;;;;;15.85;2.25;;;;;;;5.31;81.64;100800.66;7400448;19;20484;-67
2023/10/15 05:23:41;;;;;;;6.57;2.35;;;;;;;5.29;81.62;100797.19;7400813;19;20014;-67
2023/10/15 05:26:10;;;;;;;11.80;2.00;;;;;;;5.31;81.75;100807.63;7400295;19;20074;-67
2023/10/15 05:28:38;;;;;;;9.77;2.58;;;;;;;5.30;81.82;100804.13;7397669;19;20074;-68
2023/10/15 05:31:06;;;;;;;8.90;2.70;;;;;;;5.31;82.15;100808.47;7398513;19;20070;-68
2023/10/15 05:33:37;;;;;;;9.95;2.95;;;;;;;5.33;82.25;100816.28;7400448;19;20078;-67
2023/10/15 05:36:08;;;;;;;15.88;2.40;;;;;;;5.34;82.03;100813.66;7400107;19;20078;-68
2023/10/15 05:38:36;;;;;;;12.77;2.28;;;;;;;5.36;82.36;100808.50;7398376;19;20014;-68
2023/10/15 05:41:05;;;;;;;9.98;2.40;;;;;;;5.37;82.40;100815.41;7399898;19;20368;-68
2023/10/15 05:43:33;;;;;;;12.07;2.22;;;;;;;5.40;82.31;100807.63;7397677;19;20031;-68
2023/10/15 05:46:01;;;;;;;10.82;2.70;;;;;;;5.41;82.29;100811.06;7399971;19;20074;-67
2023/10/15 05:48:30;;;;;;;12.07;2.63;;;;;;;5.43;82.35;100809.34;7397376;19;20083;-68
2023/10/15 05:51:03;;;;;;;12.10;2.33;;;;;;;5.45;82.31;100820.63;7398112;19;20074;-67
2023/10/15 05:53:32;;;;;;;9.90;1.85;;;;;;;5.48;82.49;100820.63;7399451;19;20014;-68
2023/10/15 05:56:00;;;;;;;12.15;1.90;;;;;;;5.50;82.27;100824.97;7399618;19;20011;-68
2023/10/15 05:58:29;;;;;;;13.20;2.17;;;;;;;5.53;82.19;100830.19;7397139;19;20241;-67
2023/10/15 06:00:57;;;;;;;10.75;2.20;;;;;;;5.59;82.28;100841.47;7399512;19;20035;-68
2023/10/15 06:03:26;;;;;;;13.40;2.20;;;;;;;5.61;82.17;100837.09;7399321;19;20082;-68
2023/10/15 06:06:02;;;;;;;15.85;3.05;;;;;;;5.60;82.13;100835.38;7396627;19;20010;-68
2023/10/15 06:08:31;;;;;;;10.02;2.08;;;;;;;5.65;82.04;100837.13;7396540;19;20354;-68
2023/10/15 06:11:00;;;;;;;13.82;2.40;;;;;;;5.67;82.24;100829.31;7396570;19;20082;-68
2023/10/15 06:13:28;;;;;;;11.20;2.05;;;;;;;5.68;81.85;100831.91;7396159;19;20011;-67
2023/10/15 06:15:56;;;;;;;12.60;2.30;;;;;;;5.70;82.08;100842.34;7396842;19;20027;-67
2023/10/15 06:18:25;;;;;;;11.30;2.28;;;;;;;5.71;82.18;100841.44;7396531;19;20070;-67
2023/10/15 06:20:53;;;;;;;13.68;2.50;;;;;;;5.72;82.04;100837.97;7396549;19;20082;-67
2023/10/15 06:23:24;;;;;;;17.05;3.03;;;;;;;5.74;82.31;100838.84;7398372;19;20427;-67
2023/10/15 06:25:53;;;;;;;12.07;2.53;;;;;;;5.77;82.13;100851.00;7398989;19;20077;-67
2023/10/15 06:28:22;;;;;;;10.45;2.00;;;;;;;5.77;82.08;100846.66;7396766;19;20011;-67
2023/10/15 06:30:51;;;;;;;8.88;2.22;;;;;;;5.80;82.12;100841.47;7397052;19;20018;-67
2023/10/15 06:33:20;;;;;;;18.27;4.30;;;;;;;5.84;82.11;100863.16;7395999;19;20022;-67
2023/10/15 06:35:51;;;;;;;11.82;2.65;;;;;;;5.86;82.17;100861.41;7397997;19;20481;-67
2023/10/15 06:38:20;;;;;;;11.60;2.55;;;;;;;5.88;82.12;100864.88;7396160;19;20010;-67
2023/10/15 06:40:51;;;;;;;11.55;2.65;;;;;;;5.89;82.65;100861.41;7396100;19;20006;-68
2023/10/15 06:43:20;;;;;;;12.60;2.22;;;;;;;5.91;82.24;100853.59;7397947;19;20015;-69
2023/10/15 06:45:48;;;;;;;8.57;2.50;;;;;;;5.94;82.22;100858.78;7396602;19;20018;-68
2023/10/15 06:48:17;;;;;;;9.00;2.30;;;;;;;5.96;82.09;100850.09;7396450;19;20018;-68
2023/10/15 06:50:45;;;;;;;12.90;2.97;;;;;;;6.00;82.21;100856.22;7396763;19;20073;-67
2023/10/15 06:53:14;;;;;;;10.70;1.80;;;;;;;6.03;82.02;100849.28;7397755;19;20074;-67
2023/10/15 06:55:42;;;;;;;11.52;2.70;;;;;;;6.08;82.05;100861.41;7397248;19;20532;-66
2023/10/15 06:58:17;;;;;;;12.25;2.25;;;;;;;6.12;82.06;100852.75;7395894;19;20027;-67
2023/10/15 07:00:45;;;;;;;11.35;2.00;;;;;;;6.16;82.00;100851.88;7397060;19;20355;-68
2023/10/15 07:03:15;;;;;;;11.43;1.90;;;;;;;6.22;81.84;100853.56;7395182;19;20432;-68
2023/10/15 07:05:45;;;;;;;11.77;1.90;;;;;;;6.26;81.73;100845.75;7396329;19;20010;-68
2023/10/15 07:08:13;;;;;;;14.23;2.83;;;;;;;6.33;81.51;100841.41;7394356;19;20496;-66
2023/10/15 07:10:41;;;;;;;20.73;2.90;;;;;;;6.38;81.21;100842.25;7395248;19;20414;-67
2023/10/15 07:13:10;;;;;;;7.07;2.05;;;;;;;6.45;81.11;100850.94;7397100;19;20090;-68
2023/10/15 07:15:41;;;;;;;13.93;2.50;;;;;;;6.51;81.11;100845.72;7397010;19;20014;-67
2023/10/15 07:18:10;;;;;;;15.27;2.55;;;;;;;6.58;80.69;100860.44;7394843;19;20082;-66
2023/10/15 07:20:38;;;;;;;12.57;1.88;;;;;;;6.64;80.23;100870.84;7396733;19;20014;-67
2023/10/15 07:23:07;;;;;;;14.45;2.10;;;;;;;6.69;80.29;100863.88;7396253;19;20010;-66
2023/10/15 07:25:36;;;;;;;8.45;1.92;;;;;;;6.76;80.17;100858.63;7393305;19;20544;-67
2023/10/15 07:28:05;;;;;;;8.80;2.08;;;;;;;6.80;79.65;100866.44;7395534;19;20078;-66
2023/10/15 07:30:33;;;;;;;12.63;1.92;;;;;;;6.85;79.79;100858.63;7394628;19;20021;-67
2023/10/15 07:33:12;;;;;;;8.15;2.30;;;;;;;6.93;78.67;100871.63;7394217;19;20033;-67
2023/10/15 07:35:41;;;;;;;8.50;1.90;;;;;;;6.98;79.29;100883.75;7396109;19;20033;-68
2023/10/15 07:38:12;;;;;;;7.45;2.30;;;;;;;7.04;78.18;100874.16;7395208;19;20415;-67
2023/10/15 07:40:40;;;;;;;10.20;2.40;;;;;;;7.10;78.54;100871.50;7394838;19;20023;-67
2023/10/15 07:43:11;;;;;;;8.55;2.90;;;;;;;7.15;77.80;100875.84;7396092;19;20074;-68
2023/10/15 07:45:40;;;;;;;11.00;1.92;;;;;;;7.22;77.38;100874.06;7395658;19;20385;-67
2023/10/15 07:48:11;;;;;;;9.07;2.10;;;;;;;7.30;77.20;100892.28;7394762;19;20036;-67
2023/10/15 07:50:40;;;;;;;8.95;2.05;;;;;;;7.40;77.22;100890.50;7395156;19;20070;-67
2023/10/15 07:53:09;;;;;;;9.13;1.88;;;;;;;7.50;77.21;100885.19;7394004;19;20006;-67
2023/10/15 07:55:37;;;;;;;4.68;1.50;;;;;;;7.61;76.68;100890.34;7395636;19;20070;-67
2023/10/15 07:58:06;;;;;;;5.55;1.27;;;;;;;7.71;76.14;100893.75;7394605;19;20074;-67
2023/10/15 08:00:35;;;;;;;8.32;1.95;;;;;;;7.80;74.38;100937.22;7393640;19;20433;-67
2023/10/15 08:03:07;;;;;;;11.38;1.90;;;;;;;7.87;73.66;100901.47;7395591;19;20020;-67
2023/10/15 08:05:39;;;;;;;8.05;1.77;;;;;;;7.94;73.02;100898.78;7393958;19;20014;-68
2023/10/15 08:08:08;;;;;;;8.02;1.40;;;;;;;8.01;73.27;100903.97;7394003;19;20010;-67
2023/10/15 08:10:36;;;;;;;11.15;2.20;;;;;;;8.01;72.51;100917.03;7393360;19;20561;-68
2023/10/15 08:13:06;;;;;;;8.95;2.05;;;;;;;8.04;73.69;100902.19;7395263;19;20011;-68
2023/10/15 08:15:36;;;;;;;7.97;1.63;;;;;;;8.07;73.18;100893.47;7395128;19;20006;-67
2023/10/15 08:18:04;;;;;;;10.15;1.90;;;;;;;8.06;72.07;100923.97;7393612;19;20014;-67
2023/10/15 08:20:34;;;;;;;7.53;2.63;;;;;;;8.06;73.06;100887.38;7395011;19;20078;-67
2023/10/15 08:23:05;;;;;;;7.97;2.53;;;;;;;8.06;72.70;100897.84;7394434;19;20485;-67
2023/10/15 08:25:34;;;;;;;10.55;3.03;;;;;;;8.04;73.14;100898.69;7394372;19;20091;-68
2023/10/15 08:28:03;;;;;;;10.50;2.58;;;;;;;8.04;72.69;100898.69;7393137;19;20488;-68
2023/10/15 08:30:36;;;;;;;4.63;1.50;;;;;;;8.03;71.71;100903.06;7393880;19;20017;-68
2023/10/15 08:33:10;;;;;;;10.13;1.90;;;;;;;8.04;71.92;100922.22;7394785;19;20018;-69
2023/10/15 08:35:40;;;;;;;6.43;1.55;;;;;;;8.04;71.67;100906.53;7396334;19;20472;-67
2023/10/15 08:38:12;;;;;;;6.13;1.40;;;;;;;8.02;72.01;100911.78;7400302;19;20100;-67
2023/10/15 08:40:42;;;;;;;5.50;1.63;;;;;;;7.99;72.33;100901.38;7401848;19;20085;-68
2023/10/15 08:43:14;;;;;;;8.90;2.20;;;;;;;8.09;72.43;100920.47;7398043;19;20019;-68
2023/10/15 08:45:43;;;;;;;3.92;1.98;;;;;;;8.14;71.68;100916.06;7400240;19;20018;-68
2023/10/15 08:48:15;;;;;;;9.35;1.88;;;;;;;8.19;71.27;100914.28;7397808;19;20477;-67
2023/10/15 08:50:44;;;;;;;5.72;1.77;;;;;;;8.23;70.53;100921.19;7398547;19;20034;-69
2023/10/15 08:53:16;;;;;;;7.82;1.70;;;;;;;8.26;70.13;100941.22;7401275;19;20070;-68
2023/10/15 08:55:45;;;;;;;6.32;1.70;;;;;;;8.29;70.90;100931.59;7398571;19;20066;-68
2023/10/15 08:58:14;;;;;;;5.78;1.95;;;;;;;8.32;71.08;100923.72;7398961;19;20018;-69
2023/10/15 09:01:07;;;;;;;5.45;1.60;;;;;;;8.36;70.42;100932.41;7400951;19;20489;-67
2023/10/15 09:03:38;;;;;;;7.65;1.77;;;;;;;8.39;70.63;100941.97;7400556;19;20082;-67
2023/10/15 09:06:13;;;;;;;6.40;1.92;;;;;;;8.41;70.61;100934.97;7402163;19;20079;-68
2023/10/15 09:08:44;;;;;;;10.82;2.20;;;;;;;8.43;70.62;100930.63;7398544;19;20074;-68
2023/10/15 09:11:19;;;;;;;7.10;1.90;;;;;;;8.48;70.06;100936.69;7398544;19;20124;-68
2023/10/15 09:13:52;;;;;;;7.72;2.15;;;;;;;8.52;69.83;100937.50;7400373;19;20018;-68
2023/10/15 09:16:23;;;;;;;6.20;1.80;;;;;;;8.56;69.82;100920.91;7401005;19;20027;-67
2023/10/15 09:18:54;;;;;;;7.65;2.10;;;;;;;8.58;69.19;100930.47;7398475;19;20082;-67
2023/10/15 09:21:26;;;;;;;6.03;1.60;;;;;;;8.60;69.20;100949.63;7397739;19;20541;-67
2023/10/15 09:23:57;;;;;;;8.35;1.20;;;;;;;8.64;68.35;100948.72;7400933;19;20011;-68
2023/10/15 09:26:32;;;;;;;9.30;1.80;;;;;;;8.68;69.12;100935.59;7400703;19;20007;-67
2023/10/15 09:29:01;;;;;;;5.88;1.60;;;;;;;8.75;69.09;100932.91;7397395;19;20027;-68
2023/10/15 09:31:29;;;;;;;4.53;1.38;;;;;;;8.79;67.79;100936.34;7398893;19;20003;-70
2023/10/15 09:33:58;;;;;;;3.40;1.13;;;;;;;8.83;67.94;100951.13;7400132;19;20423;-68
2023/10/15 09:36:26;;;;;;;5.47;1.90;;;;;;;8.88;67.90;100938.00;7399767;19;20089;-68
2023/10/15 09:38:57;;;;;;;3.95;1.30;;;;;;;8.87;67.15;100934.53;7397465;19;20010;-72
2023/10/15 09:41:26;;;;;;;3.55;1.20;;;;;;;8.88;66.99;100962.41;7398835;19;20501;-67
2023/10/15 09:43:57;;;;;;;5.43;1.40;;;;;;;8.90;67.39;100951.94;7399060;19;20013;-69
2023/10/15 09:46:26;;;;;;;6.82;1.77;;;;;;;8.92;68.02;100945.81;7398623;19;20041;-66
2023/10/15 09:48:55;;;;;;;5.57;2.05;;;;;;;8.93;67.26;100941.44;7396216;19;20010;-67
2023/10/15 09:51:26;;;;;;;6.32;1.60;;;;;;;8.98;67.85;100949.22;7399011;19;20014;-67
2023/10/15 09:53:59;;;;;;;6.50;2.13;;;;;;;9.02;66.98;100966.63;7398944;19;20074;-67
2023/10/15 09:56:29;;;;;;;3.95;1.40;;;;;;;9.08;67.55;100940.38;7399314;19;20014;-67
2023/10/15 09:58:58;;;;;;;4.38;1.42;;;;;;;9.16;67.23;100958.59;7396494;19;20541;-68
2023/10/15 10:01:28;;;;;;;5.18;1.42;;;;;;;9.23;67.37;100948.03;7399129;19;20017;-74
2023/10/15 10:04:40;;;;;;;3.28;1.15;;;;;;;9.35;67.74;100954.88;7396586;19;20506;-68
2023/10/15 10:07:38;;;;;;;3.97;1.20;;;;;;;9.50;64.93;100955.53;7396317;19;20019;-68
2023/10/15 10:10:34;;;;;;;5.47;1.00;;;;;;;9.49;63.08;100954.69;7396657;19;20019;-63
2023/10/15 10:13:35;;;;;;;4.35;1.10;;;;;;;9.49;63.93;100980.88;7396287;19;20034;-64
2023/10/15 10:16:10;;;;;;;4.20;1.20;;;;;;;9.46;65.76;100959.94;7396608;19;20045;-63
2023/10/15 10:18:38;;;;;;;5.55;1.05;;;;;;;9.47;65.32;100964.31;7396857;19;20066;-64
2023/10/15 10:21:11;;;;;;;3.17;0.88;;;;;;;9.45;65.23;100969.56;7396443;19;20079;-64
2023/10/15 10:23:40;;;;;;;4.70;1.35;;;;;;;9.44;65.63;100957.34;7396302;19;20014;-65
2023/10/15 10:26:16;;;;;;;3.78;1.38;;;;;;;9.41;64.96;100953.91;7398691;19;20006;-66
2023/10/15 10:28:45;;;;;;;4.63;1.27;;;;;;;9.42;65.78;100960.88;7396116;19;20074;-66
2023/10/15 10:31:14;;;;;;;3.97;0.82;;;;;;;9.43;65.77;100954.78;7397130;19;20090;-64
2023/10/15 10:33:53;;;;;;;2.55;0.80;;;;;;;9.44;64.96;100961.75;7394948;19;20011;-69
2023/10/15 10:36:25;;;;;;;5.63;1.48;;;;;;;9.45;65.57;100958.22;7398137;19;20020;-67
2023/10/15 10:38:59;;;;;;;5.03;0.80;;;;;;;9.50;65.66;100950.31;7395394;19;20481;-64
2023/10/15 10:41:37;;;;;;;;;;;;;;;9.50;63.75;100960.78;7398344;19;20015;-65
2023/10/15 10:44:06;;;;;;;3.20;0.80;;;;;;;9.52;65.19;100959.88;7395705;19;19919;-65
2023/10/15 10:46:43;;;;;;;3.88;1.17;;;;;;;9.52;63.86;100959.88;7396941;19;20424;-64
2023/10/15 10:49:13;;;;;;;2.13;0.70;;;;;;;9.51;64.06;100957.28;7396387;19;20018;-65
2023/10/15 10:51:42;;;;;;;5.10;0.80;;;;;;;9.53;63.03;100985.19;7396686;19;20485;-65
2023/10/15 10:54:25;;;;;;;3.78;1.42;;;;;;;9.54;63.21;100968.59;7397676;19;20064;-67
2023/10/15 10:57:07;;;;;;;3.88;0.93;;;;;;;9.52;63.43;100962.50;7397130;19;20006;-66
2023/10/15 10:59:36;;;;;;;1.73;0.90;;;;;;;9.54;63.41;100955.50;7394340;19;20030;-66
2023/10/15 11:02:07;;;;;;;3.60;1.17;;;;;;;9.53;63.53;100948.50;7397118;19;20041;-66
2023/10/15 11:04:36;;;;;;;3.08;0.60;;;;;;;9.55;63.46;100962.44;7396924;19;20014;-66
2023/10/15 11:07:04;;;;;;;2.58;0.70;;;;;;;9.56;63.03;100955.47;7396490;19;20033;-66
2023/10/15 11:09:33;;;;;;;3.70;0.73;;;;;;;9.59;63.71;100953.66;7394809;19;20509;-65
2023/10/15 11:12:04;;;;;;;6.13;1.20;;;;;;;9.64;63.44;100950.09;7394790;19;20021;-65
2023/10/15 11:14:33;;;;;;;3.45;0.90;;;;;;;9.65;62.47;100938.75;7394750;19;20066;-66
2023/10/15 11:17:02;;;;;;;1.95;0.55;;;;;;;9.68;62.00;100960.53;7396428;19;20082;-68
2023/10/15 11:19:32;;;;;;;2.95;0.98;;;;;;;9.71;62.62;100934.28;7397470;19;20041;-66
2023/10/15 11:22:01;;;;;;;3.45;1.10;;;;;;;9.76;61.31;100957.78;7396115;19;20495;-63
2023/10/15 11:24:30;;;;;;;3.83;0.70;;;;;;;9.77;61.36;100943.81;7394934;19;20018;-65
2023/10/15 11:26:59;;;;;;;1.60;0.40;;;;;;;9.77;61.40;100944.66;7394842;19;20093;-65
2023/10/15 11:29:33;;;;;;;2.25;0.50;;;;;;;9.75;60.21;100942.94;7396526;19;20018;-65
2023/10/15 11:32:02;;;;;;;3.08;0.80;;;;;;;9.75;61.13;100940.34;7395858;19;20029;-65
2023/10/15 11:34:31;;;;;;;3.55;1.05;;;;;;;9.77;61.13;100943.81;7394765;19;20022;-65
2023/10/15 11:37:01;;;;;;;3.67;1.08;;;;;;;9.82;61.38;100944.59;7395862;19;20032;-65
2023/10/15 11:39:37;;;;;;;4.38;1.27;;;;;;;9.86;60.86;100934.94;7396065;19;20373;-68
2023/10/15 11:42:06;;;;;;;3.63;1.23;;;;;;;9.87;59.20;100931.41;7395471;19;20477;-65
2023/10/15 11:44:42;;;;;;;2.10;0.93;;;;;;;9.88;60.30;100941.00;7395438;19;20078;-66
2023/10/15 11:47:11;;;;;;;3.28;0.80;;;;;;;9.90;60.29;100944.47;7394498;19;20018;-65
2023/10/15 11:49:42;;;;;;;2.33;0.90;;;;;;;9.93;60.82;100947.91;7395657;19;20018;-66
2023/10/15 11:52:14;;;;;;;3.33;0.75;;;;;;;9.92;61.19;100938.31;7394616;19;20379;-65
2023/10/15 11:54:49;;;;;;;2.38;0.85;;;;;;;9.92;60.51;100937.44;7394482;19;20015;-68
2023/10/15 11:57:23;;;;;;;1.85;0.98;;;;;;;9.94;61.13;100939.19;7395501;19;20018;-65